sensor_id;sensor_type;location;lat;lon;timestamp;P1;durP1;ratioP1;P2;durP2;ratioP2
71462;SDS011;59266;52.608;13.260;2023-08-21T00:02:12;15.82;;;5.97;;
71462;SDS011;59266;52.608;13.260;2023-08-21T00:04:39;12.32;;;5.85;;
71462;SDS011;59266;52.608;13.260;2023-08-21T00:07:05;11.55;;;5.30;;
71462;SDS011;59266;52.608;13.260;2023-08-21T00:09:32;13.50;;;6.03;;
71462;SDS011;59266;52.608;13.260;2023-08-21T00:11:59;11.55;;;6.40;;
71462;SDS011;59266;52.608;13.260;2023-08-21T00:14:26;12.25;;;5.88;;
71462;SDS011;59266;52.608;13.260;2023-08-21T00:16:53;11.73;;;6.07;;
71462;SDS011;59266;52.608;13.260;2023-08-21T00:19:19;13.25;;;6.22;;
71462;SDS011;59266;52.608;13.260;2023-08-21T00:21:46;11.90;;;5.70;;
71462;SDS011;59266;52.608;13.260;2023-08-21T00:24:13;14.57;;;6.45;;
71462;SDS011;59266;52.608;13.260;2023-08-21T00:26:40;14.20;;;6.63;;
71462;SDS011;59266;52.608;13.260;2023-08-21T00:29:07;16.52;;;6.70;;
71462;SDS011;59266;52.608;13.260;2023-08-21T00:31:34;15.15;;;7.93;;
71462;SDS011;59266;52.608;13.260;2023-08-21T00:34:00;13.75;;;6.63;;
71462;SDS011;59266;52.608;13.260;2023-08-21T00:36:27;16.65;;;6.38;;
71462;SDS011;59266;52.608;13.260;2023-08-21T00:38:53;17.77;;;7.32;;
71462;SDS011;59266;52.608;13.260;2023-08-21T00:41:20;17.00;;;7.55;;
71462;SDS011;59266;52.608;13.260;2023-08-21T00:43:47;14.18;;;7.20;;
71462;SDS011;59266;52.608;13.260;2023-08-21T00:46:14;14.82;;;7.75;;
71462;SDS011;59266;52.608;13.260;2023-08-21T00:48:42;16.35;;;7.38;;
71462;SDS011;59266;52.608;13.260;2023-08-21T00:51:09;14.43;;;7.72;;
71462;SDS011;59266;52.608;13.260;2023-08-21T00:53:37;17.15;;;7.68;;
71462;SDS011;59266;52.608;13.260;2023-08-21T00:56:04;16.05;;;7.80;;
71462;SDS011;59266;52.608;13.260;2023-08-21T00:58:31;16.60;;;7.90;;
71462;SDS011;59266;52.608;13.260;2023-08-21T01:00:58;15.73;;;7.80;;
71462;SDS011;59266;52.608;13.260;2023-08-21T01:03:24;14.98;;;7.00;;
71462;SDS011;59266;52.608;13.260;2023-08-21T01:05:51;17.90;;;8.40;;
71462;SDS011;59266;52.608;13.260;2023-08-21T01:08:36;14.85;;;7.65;;
71462;SDS011;59266;52.608;13.260;2023-08-21T01:11:18;16.08;;;7.70;;
71462;SDS011;59266;52.608;13.260;2023-08-21T01:13:55;14.70;;;7.88;;
71462;SDS011;59266;52.608;13.260;2023-08-21T01:16:38;15.10;;;7.60;;
71462;SDS011;59266;52.608;13.260;2023-08-21T01:19:09;15.10;;;8.10;;
71462;SDS011;59266;52.608;13.260;2023-08-21T01:21:45;14.43;;;7.50;;
71462;SDS011;59266;52.608;13.260;2023-08-21T01:24:12;14.35;;;8.13;;
71462;SDS011;59266;52.608;13.260;2023-08-21T01:26:38;14.40;;;7.78;;
71462;SDS011;59266;52.608;13.260;2023-08-21T01:29:05;15.55;;;8.23;;
71462;SDS011;59266;52.608;13.260;2023-08-21T01:31:33;17.50;;;8.40;;
71462;SDS011;59266;52.608;13.260;2023-08-21T01:34:04;16.30;;;9.00;;
71462;SDS011;59266;52.608;13.260;2023-08-21T01:36:32;17.63;;;8.48;;
71462;SDS011;59266;52.608;13.260;2023-08-21T01:39:00;17.60;;;8.15;;
71462;SDS011;59266;52.608;13.260;2023-08-21T01:41:27;17.35;;;8.70;;
71462;SDS011;59266;52.608;13.260;2023-08-21T01:43:54;17.08;;;8.90;;
71462;SDS011;59266;52.608;13.260;2023-08-21T01:46:21;18.40;;;9.13;;
71462;SDS011;59266;52.608;13.260;2023-08-21T01:48:48;17.40;;;8.40;;
71462;SDS011;59266;52.608;13.260;2023-08-21T01:51:14;17.50;;;8.70;;
71462;SDS011;59266;52.608;13.260;2023-08-21T01:53:41;17.90;;;8.63;;
71462;SDS011;59266;52.608;13.260;2023-08-21T01:56:08;16.05;;;8.57;;
71462;SDS011;59266;52.608;13.260;2023-08-21T01:58:34;18.15;;;8.95;;
71462;SDS011;59266;52.608;13.260;2023-08-21T02:01:01;17.17;;;8.88;;
71462;SDS011;59266;52.608;13.260;2023-08-21T02:03:28;12.85;;;7.65;;
71462;SDS011;59266;52.608;13.260;2023-08-21T02:05:57;16.13;;;8.73;;
71462;SDS011;59266;52.608;13.260;2023-08-21T02:08:32;15.07;;;8.18;;
71462;SDS011;59266;52.608;13.260;2023-08-21T02:10:59;14.05;;;8.43;;
71462;SDS011;59266;52.608;13.260;2023-08-21T02:13:26;16.98;;;8.50;;
71462;SDS011;59266;52.608;13.260;2023-08-21T02:15:53;18.15;;;8.38;;
71462;SDS011;59266;52.608;13.260;2023-08-21T02:18:20;17.73;;;8.98;;
71462;SDS011;59266;52.608;13.260;2023-08-21T02:20:49;18.95;;;9.45;;
71462;SDS011;59266;52.608;13.260;2023-08-21T02:23:16;18.08;;;9.68;;
71462;SDS011;59266;52.608;13.260;2023-08-21T02:25:43;19.05;;;9.23;;
71462;SDS011;59266;52.608;13.260;2023-08-21T02:28:09;14.25;;;8.60;;
71462;SDS011;59266;52.608;13.260;2023-08-21T02:30:39;17.25;;;8.63;;
71462;SDS011;59266;52.608;13.260;2023-08-21T02:33:06;16.13;;;9.13;;
71462;SDS011;59266;52.608;13.260;2023-08-21T02:35:33;16.85;;;8.48;;
71462;SDS011;59266;52.608;13.260;2023-08-21T02:38:00;15.77;;;9.10;;
71462;SDS011;59266;52.608;13.260;2023-08-21T02:40:26;18.70;;;9.20;;
71462;SDS011;59266;52.608;13.260;2023-08-21T02:42:53;18.10;;;9.00;;
71462;SDS011;59266;52.608;13.260;2023-08-21T02:45:19;15.35;;;8.38;;
71462;SDS011;59266;52.608;13.260;2023-08-21T02:47:46;15.73;;;9.32;;
71462;SDS011;59266;52.608;13.260;2023-08-21T02:50:13;17.58;;;9.68;;
71462;SDS011;59266;52.608;13.260;2023-08-21T02:52:40;15.48;;;8.25;;
71462;SDS011;59266;52.608;13.260;2023-08-21T02:55:07;15.75;;;8.18;;
71462;SDS011;59266;52.608;13.260;2023-08-21T02:57:34;19.33;;;8.82;;
71462;SDS011;59266;52.608;13.260;2023-08-21T03:00:01;14.55;;;8.30;;
71462;SDS011;59266;52.608;13.260;2023-08-21T03:02:29;17.20;;;8.50;;
71462;SDS011;59266;52.608;13.260;2023-08-21T03:04:56;16.45;;;8.07;;
71462;SDS011;59266;52.608;13.260;2023-08-21T03:07:22;16.55;;;8.63;;
71462;SDS011;59266;52.608;13.260;2023-08-21T03:09:49;15.38;;;8.75;;
71462;SDS011;59266;52.608;13.260;2023-08-21T03:12:16;16.27;;;8.65;;
71462;SDS011;59266;52.608;13.260;2023-08-21T03:14:43;18.98;;;8.65;;
71462;SDS011;59266;52.608;13.260;2023-08-21T03:17:12;15.77;;;8.23;;
71462;SDS011;59266;52.608;13.260;2023-08-21T03:19:38;20.35;;;8.82;;
71462;SDS011;59266;52.608;13.260;2023-08-21T03:22:05;13.90;;;8.27;;
71462;SDS011;59266;52.608;13.260;2023-08-21T03:24:31;13.73;;;7.63;;
71462;SDS011;59266;52.608;13.260;2023-08-21T03:26:58;13.63;;;8.32;;
71462;SDS011;59266;52.608;13.260;2023-08-21T03:29:25;15.70;;;8.68;;
71462;SDS011;59266;52.608;13.260;2023-08-21T03:31:53;17.52;;;8.18;;
71462;SDS011;59266;52.608;13.260;2023-08-21T03:34:23;18.17;;;8.32;;
71462;SDS011;59266;52.608;13.260;2023-08-21T03:36:50;16.35;;;8.30;;
71462;SDS011;59266;52.608;13.260;2023-08-21T03:39:16;17.08;;;7.68;;
71462;SDS011;59266;52.608;13.260;2023-08-21T03:41:43;13.77;;;7.70;;
71462;SDS011;59266;52.608;13.260;2023-08-21T03:44:09;12.95;;;7.10;;
71462;SDS011;59266;52.608;13.260;2023-08-21T03:46:36;12.35;;;7.55;;
71462;SDS011;59266;52.608;13.260;2023-08-21T03:49:03;15.88;;;7.32;;
71462;SDS011;59266;52.608;13.260;2023-08-21T03:51:29;17.08;;;9.40;;
71462;SDS011;59266;52.608;13.260;2023-08-21T03:53:56;17.08;;;8.20;;
71462;SDS011;59266;52.608;13.260;2023-08-21T03:56:23;18.52;;;8.98;;
71462;SDS011;59266;52.608;13.260;2023-08-21T03:58:51;14.52;;;7.97;;
71462;SDS011;59266;52.608;13.260;2023-08-21T04:01:17;16.83;;;8.55;;
71462;SDS011;59266;52.608;13.260;2023-08-21T04:03:44;15.82;;;8.52;;
71462;SDS011;59266;52.608;13.260;2023-08-21T04:06:11;16.13;;;7.90;;
71462;SDS011;59266;52.608;13.260;2023-08-21T04:08:37;13.75;;;7.65;;
71462;SDS011;59266;52.608;13.260;2023-08-21T04:11:05;18.67;;;7.88;;
71462;SDS011;59266;52.608;13.260;2023-08-21T04:13:32;14.68;;;8.27;;
71462;SDS011;59266;52.608;13.260;2023-08-21T04:15:59;18.23;;;8.82;;
71462;SDS011;59266;52.608;13.260;2023-08-21T04:18:26;14.23;;;8.20;;
71462;SDS011;59266;52.608;13.260;2023-08-21T04:21:06;15.45;;;8.25;;
71462;SDS011;59266;52.608;13.260;2023-08-21T04:23:33;16.98;;;8.60;;
71462;SDS011;59266;52.608;13.260;2023-08-21T04:26:00;19.15;;;9.73;;
71462;SDS011;59266;52.608;13.260;2023-08-21T04:28:31;13.00;;;7.97;;
71462;SDS011;59266;52.608;13.260;2023-08-21T04:30:58;14.63;;;8.68;;
71462;SDS011;59266;52.608;13.260;2023-08-21T04:33:27;16.65;;;8.40;;
71462;SDS011;59266;52.608;13.260;2023-08-21T04:35:54;15.85;;;8.25;;
71462;SDS011;59266;52.608;13.260;2023-08-21T04:38:21;14.65;;;8.07;;
71462;SDS011;59266;52.608;13.260;2023-08-21T04:40:48;14.77;;;8.60;;
71462;SDS011;59266;52.608;13.260;2023-08-21T04:43:15;13.20;;;7.72;;
71462;SDS011;59266;52.608;13.260;2023-08-21T04:45:51;15.13;;;7.60;;
71462;SDS011;59266;52.608;13.260;2023-08-21T04:48:21;15.05;;;7.47;;
71462;SDS011;59266;52.608;13.260;2023-08-21T04:50:47;14.90;;;7.60;;
71462;SDS011;59266;52.608;13.260;2023-08-21T04:53:14;12.15;;;7.30;;
71462;SDS011;59266;52.608;13.260;2023-08-21T04:55:41;14.15;;;7.38;;
71462;SDS011;59266;52.608;13.260;2023-08-21T04:58:08;14.10;;;7.30;;
71462;SDS011;59266;52.608;13.260;2023-08-21T05:00:35;12.23;;;8.07;;
71462;SDS011;59266;52.608;13.260;2023-08-21T05:03:05;13.57;;;7.65;;
71462;SDS011;59266;52.608;13.260;2023-08-21T05:05:33;18.67;;;8.93;;
71462;SDS011;59266;52.608;13.260;2023-08-21T05:07:59;18.38;;;8.55;;
71462;SDS011;59266;52.608;13.260;2023-08-21T05:10:26;12.70;;;7.78;;
71462;SDS011;59266;52.608;13.260;2023-08-21T05:12:53;16.35;;;7.78;;
71462;SDS011;59266;52.608;13.260;2023-08-21T05:15:19;15.93;;;8.07;;
71462;SDS011;59266;52.608;13.260;2023-08-21T05:17:46;17.48;;;7.50;;
71462;SDS011;59266;52.608;13.260;2023-08-21T05:20:12;15.57;;;7.90;;
71462;SDS011;59266;52.608;13.260;2023-08-21T05:22:40;13.07;;;7.90;;
71462;SDS011;59266;52.608;13.260;2023-08-21T05:25:07;14.27;;;7.95;;
71462;SDS011;59266;52.608;13.260;2023-08-21T05:27:34;12.20;;;7.25;;
71462;SDS011;59266;52.608;13.260;2023-08-21T05:30:00;14.25;;;7.53;;
71462;SDS011;59266;52.608;13.260;2023-08-21T05:32:27;15.13;;;7.55;;
71462;SDS011;59266;52.608;13.260;2023-08-21T05:34:54;16.85;;;7.78;;
71462;SDS011;59266;52.608;13.260;2023-08-21T05:37:20;14.38;;;7.32;;
71462;SDS011;59266;52.608;13.260;2023-08-21T05:39:49;13.90;;;7.22;;
71462;SDS011;59266;52.608;13.260;2023-08-21T05:42:16;14.52;;;7.38;;
71462;SDS011;59266;52.608;13.260;2023-08-21T05:44:42;13.00;;;7.10;;
71462;SDS011;59266;52.608;13.260;2023-08-21T05:47:09;13.60;;;7.25;;
71462;SDS011;59266;52.608;13.260;2023-08-21T05:49:35;12.73;;;7.35;;
71462;SDS011;59266;52.608;13.260;2023-08-21T05:52:02;14.38;;;6.47;;
71462;SDS011;59266;52.608;13.260;2023-08-21T05:54:29;12.50;;;6.70;;
71462;SDS011;59266;52.608;13.260;2023-08-21T05:56:57;12.45;;;7.30;;
71462;SDS011;59266;52.608;13.260;2023-08-21T05:59:27;14.95;;;6.90;;
71462;SDS011;59266;52.608;13.260;2023-08-21T06:01:56;12.43;;;7.50;;
71462;SDS011;59266;52.608;13.260;2023-08-21T06:04:22;11.65;;;6.47;;
71462;SDS011;59266;52.608;13.260;2023-08-21T06:06:50;14.23;;;8.23;;
71462;SDS011;59266;52.608;13.260;2023-08-21T06:09:16;18.73;;;8.93;;
71462;SDS011;59266;52.608;13.260;2023-08-21T06:11:43;17.60;;;7.55;;
71462;SDS011;59266;52.608;13.260;2023-08-21T06:14:10;11.43;;;6.72;;
71462;SDS011;59266;52.608;13.260;2023-08-21T06:16:37;14.30;;;8.25;;
71462;SDS011;59266;52.608;13.260;2023-08-21T06:19:03;14.93;;;8.65;;
71462;SDS011;59266;52.608;13.260;2023-08-21T06:21:30;15.85;;;8.52;;
71462;SDS011;59266;52.608;13.260;2023-08-21T06:23:57;14.57;;;7.88;;
71462;SDS011;59266;52.608;13.260;2023-08-21T06:26:24;14.15;;;6.82;;
71462;SDS011;59266;52.608;13.260;2023-08-21T06:28:51;12.02;;;5.97;;
71462;SDS011;59266;52.608;13.260;2023-08-21T06:31:17;13.73;;;7.32;;
71462;SDS011;59266;52.608;13.260;2023-08-21T06:33:44;15.18;;;7.28;;
71462;SDS011;59266;52.608;13.260;2023-08-21T06:36:11;13.98;;;6.88;;
71462;SDS011;59266;52.608;13.260;2023-08-21T06:38:37;13.32;;;6.75;;
71462;SDS011;59266;52.608;13.260;2023-08-21T06:41:04;15.55;;;7.20;;
71462;SDS011;59266;52.608;13.260;2023-08-21T06:43:38;13.07;;;6.25;;
71462;SDS011;59266;52.608;13.260;2023-08-21T06:46:10;12.88;;;6.40;;
71462;SDS011;59266;52.608;13.260;2023-08-21T06:48:37;10.25;;;6.38;;
71462;SDS011;59266;52.608;13.260;2023-08-21T06:51:06;11.07;;;6.38;;
71462;SDS011;59266;52.608;13.260;2023-08-21T06:53:32;12.65;;;6.60;;
71462;SDS011;59266;52.608;13.260;2023-08-21T06:55:59;10.88;;;6.60;;
71462;SDS011;59266;52.608;13.260;2023-08-21T06:58:26;14.18;;;7.20;;
71462;SDS011;59266;52.608;13.260;2023-08-21T07:00:56;12.18;;;6.75;;
71462;SDS011;59266;52.608;13.260;2023-08-21T07:03:22;10.82;;;6.20;;
71462;SDS011;59266;52.608;13.260;2023-08-21T07:05:56;9.27;;;5.97;;
71462;SDS011;59266;52.608;13.260;2023-08-21T07:08:23;10.93;;;5.80;;
71462;SDS011;59266;52.608;13.260;2023-08-21T07:10:51;12.73;;;6.32;;
71462;SDS011;59266;52.608;13.260;2023-08-21T07:13:18;10.90;;;5.45;;
71462;SDS011;59266;52.608;13.260;2023-08-21T07:15:52;9.35;;;5.47;;
71462;SDS011;59266;52.608;13.260;2023-08-21T07:18:22;11.07;;;4.93;;
71462;SDS011;59266;52.608;13.260;2023-08-21T07:20:51;8.52;;;5.10;;
71462;SDS011;59266;52.608;13.260;2023-08-21T07:23:18;10.65;;;4.75;;
71462;SDS011;59266;52.608;13.260;2023-08-21T07:25:45;9.55;;;5.25;;
71462;SDS011;59266;52.608;13.260;2023-08-21T07:28:12;9.27;;;4.80;;
71462;SDS011;59266;52.608;13.260;2023-08-21T07:30:38;9.27;;;4.63;;
71462;SDS011;59266;52.608;13.260;2023-08-21T07:33:07;8.70;;;4.57;;
71462;SDS011;59266;52.608;13.260;2023-08-21T07:35:34;10.38;;;4.63;;
71462;SDS011;59266;52.608;13.260;2023-08-21T07:38:02;10.35;;;4.53;;
71462;SDS011;59266;52.608;13.260;2023-08-21T07:40:29;11.10;;;4.45;;
71462;SDS011;59266;52.608;13.260;2023-08-21T07:42:56;9.10;;;4.47;;
71462;SDS011;59266;52.608;13.260;2023-08-21T07:45:23;7.72;;;4.20;;
71462;SDS011;59266;52.608;13.260;2023-08-21T07:47:49;9.85;;;4.63;;
71462;SDS011;59266;52.608;13.260;2023-08-21T07:50:36;9.07;;;4.70;;
71462;SDS011;59266;52.608;13.260;2023-08-21T07:53:03;9.32;;;4.53;;
71462;SDS011;59266;52.608;13.260;2023-08-21T07:55:30;8.65;;;2.95;;
71462;SDS011;59266;52.608;13.260;2023-08-21T07:57:57;7.00;;;2.28;;
71462;SDS011;59266;52.608;13.260;2023-08-21T08:00:27;7.95;;;2.60;;
71462;SDS011;59266;52.608;13.260;2023-08-21T08:03:02;6.70;;;2.30;;
71462;SDS011;59266;52.608;13.260;2023-08-21T08:05:34;6.40;;;2.28;;
71462;SDS011;59266;52.608;13.260;2023-08-21T08:08:00;8.50;;;2.08;;
71462;SDS011;59266;52.608;13.260;2023-08-21T08:10:27;8.70;;;2.20;;
71462;SDS011;59266;52.608;13.260;2023-08-21T08:12:54;9.05;;;2.47;;
71462;SDS011;59266;52.608;13.260;2023-08-21T08:15:23;6.35;;;1.90;;
71462;SDS011;59266;52.608;13.260;2023-08-21T08:17:53;8.90;;;1.85;;
71462;SDS011;59266;52.608;13.260;2023-08-21T08:20:21;7.82;;;2.10;;
71462;SDS011;59266;52.608;13.260;2023-08-21T08:22:48;11.30;;;2.75;;
71462;SDS011;59266;52.608;13.260;2023-08-21T08:25:15;6.10;;;1.73;;
71462;SDS011;59266;52.608;13.260;2023-08-21T08:27:43;12.18;;;2.72;;
71462;SDS011;59266;52.608;13.260;2023-08-21T08:30:10;8.10;;;1.85;;
71462;SDS011;59266;52.608;13.260;2023-08-21T08:32:37;8.07;;;1.70;;
71462;SDS011;59266;52.608;13.260;2023-08-21T08:35:06;9.93;;;2.00;;
71462;SDS011;59266;52.608;13.260;2023-08-21T08:37:33;9.40;;;2.00;;
71462;SDS011;59266;52.608;13.260;2023-08-21T08:40:00;7.68;;;1.75;;
71462;SDS011;59266;52.608;13.260;2023-08-21T08:42:26;5.50;;;1.58;;
71462;SDS011;59266;52.608;13.260;2023-08-21T08:44:53;4.15;;;1.30;;
71462;SDS011;59266;52.608;13.260;2023-08-21T08:47:21;6.55;;;1.38;;
71462;SDS011;59266;52.608;13.260;2023-08-21T08:49:48;5.55;;;1.40;;
71462;SDS011;59266;52.608;13.260;2023-08-21T08:52:16;5.38;;;1.38;;
71462;SDS011;59266;52.608;13.260;2023-08-21T08:54:44;4.88;;;1.35;;
71462;SDS011;59266;52.608;13.260;2023-08-21T08:57:10;5.78;;;1.38;;
71462;SDS011;59266;52.608;13.260;2023-08-21T08:59:37;6.45;;;1.58;;
71462;SDS011;59266;52.608;13.260;2023-08-21T09:02:04;4.97;;;1.33;;
71462;SDS011;59266;52.608;13.260;2023-08-21T09:04:31;5.72;;;1.73;;
71462;SDS011;59266;52.608;13.260;2023-08-21T09:07:07;4.28;;;1.38;;
71462;SDS011;59266;52.608;13.260;2023-08-21T09:09:53;5.47;;;1.50;;
71462;SDS011;59266;52.608;13.260;2023-08-21T09:12:20;4.88;;;1.58;;
71462;SDS011;59266;52.608;13.260;2023-08-21T09:14:47;8.85;;;1.70;;
71462;SDS011;59266;52.608;13.260;2023-08-21T09:17:14;5.00;;;1.60;;
71462;SDS011;59266;52.608;13.260;2023-08-21T09:19:41;6.45;;;1.55;;
71462;SDS011;59266;52.608;13.260;2023-08-21T09:22:11;6.05;;;1.50;;
71462;SDS011;59266;52.608;13.260;2023-08-21T09:24:40;5.45;;;1.60;;
71462;SDS011;59266;52.608;13.260;2023-08-21T09:27:25;6.88;;;1.70;;
71462;SDS011;59266;52.608;13.260;2023-08-21T09:29:54;5.45;;;1.38;;
71462;SDS011;59266;52.608;13.260;2023-08-21T09:32:21;8.18;;;1.75;;
71462;SDS011;59266;52.608;13.260;2023-08-21T09:34:49;5.88;;;1.70;;
71462;SDS011;59266;52.608;13.260;2023-08-21T09:37:16;6.72;;;1.63;;
71462;SDS011;59266;52.608;13.260;2023-08-21T09:39:43;8.55;;;1.70;;
71462;SDS011;59266;52.608;13.260;2023-08-21T09:42:11;6.65;;;1.70;;
71462;SDS011;59266;52.608;13.260;2023-08-21T09:44:39;7.05;;;1.80;;
71462;SDS011;59266;52.608;13.260;2023-08-21T09:47:09;6.30;;;1.75;;
71462;SDS011;59266;52.608;13.260;2023-08-21T09:49:38;6.30;;;1.90;;
71462;SDS011;59266;52.608;13.260;2023-08-21T09:52:06;6.13;;;1.55;;
71462;SDS011;59266;52.608;13.260;2023-08-21T09:54:39;7.28;;;1.70;;
71462;SDS011;59266;52.608;13.260;2023-08-21T09:57:08;5.30;;;1.52;;
71462;SDS011;59266;52.608;13.260;2023-08-21T09:59:36;6.35;;;1.63;;
71462;SDS011;59266;52.608;13.260;2023-08-21T10:02:06;4.97;;;1.33;;
71462;SDS011;59266;52.608;13.260;2023-08-21T10:04:33;6.25;;;1.55;;
71462;SDS011;59266;52.608;13.260;2023-08-21T10:07:02;3.75;;;1.30;;
71462;SDS011;59266;52.608;13.260;2023-08-21T10:09:33;6.28;;;1.50;;
71462;SDS011;59266;52.608;13.260;2023-08-21T10:12:02;5.72;;;1.35;;
71462;SDS011;59266;52.608;13.260;2023-08-21T10:14:29;5.80;;;1.52;;
71462;SDS011;59266;52.608;13.260;2023-08-21T10:16:56;6.13;;;1.83;;
71462;SDS011;59266;52.608;13.260;2023-08-21T10:19:23;6.85;;;1.67;;
71462;SDS011;59266;52.608;13.260;2023-08-21T10:21:49;4.95;;;1.40;;
71462;SDS011;59266;52.608;13.260;2023-08-21T10:24:26;5.13;;;1.60;;
71462;SDS011;59266;52.608;13.260;2023-08-21T10:27:06;7.85;;;1.65;;
71462;SDS011;59266;52.608;13.260;2023-08-21T10:29:32;4.70;;;1.30;;
71462;SDS011;59266;52.608;13.260;2023-08-21T10:32:00;7.97;;;1.60;;
71462;SDS011;59266;52.608;13.260;2023-08-21T10:34:36;8.15;;;1.60;;
71462;SDS011;59266;52.608;13.260;2023-08-21T10:37:07;4.88;;;1.42;;
71462;SDS011;59266;52.608;13.260;2023-08-21T10:39:44;7.00;;;1.80;;
71462;SDS011;59266;52.608;13.260;2023-08-21T10:42:21;4.65;;;1.45;;
71462;SDS011;59266;52.608;13.260;2023-08-21T10:45:09;4.50;;;1.50;;
71462;SDS011;59266;52.608;13.260;2023-08-21T10:47:37;7.82;;;1.60;;
71462;SDS011;59266;52.608;13.260;2023-08-21T10:50:05;5.78;;;1.70;;
71462;SDS011;59266;52.608;13.260;2023-08-21T10:52:40;4.63;;;1.42;;
71462;SDS011;59266;52.608;13.260;2023-08-21T10:55:09;4.50;;;1.70;;
71462;SDS011;59266;52.608;13.260;2023-08-21T10:57:36;6.68;;;1.45;;
71462;SDS011;59266;52.608;13.260;2023-08-21T11:00:04;8.45;;;1.77;;
71462;SDS011;59266;52.608;13.260;2023-08-21T11:02:35;5.97;;;1.70;;
71462;SDS011;59266;52.608;13.260;2023-08-21T11:05:02;6.13;;;1.48;;
71462;SDS011;59266;52.608;13.260;2023-08-21T11:07:30;5.60;;;1.38;;
71462;SDS011;59266;52.608;13.260;2023-08-21T11:10:06;6.10;;;1.40;;
71462;SDS011;59266;52.608;13.260;2023-08-21T11:12:37;6.13;;;1.42;;
71462;SDS011;59266;52.608;13.260;2023-08-21T11:15:05;4.70;;;1.20;;
71462;SDS011;59266;52.608;13.260;2023-08-21T11:17:32;4.43;;;1.08;;
71462;SDS011;59266;52.608;13.260;2023-08-21T11:20:00;4.65;;;1.30;;
71462;SDS011;59266;52.608;13.260;2023-08-21T11:22:31;4.57;;;1.10;;
71462;SDS011;59266;52.608;13.260;2023-08-21T11:24:58;4.55;;;1.10;;
71462;SDS011;59266;52.608;13.260;2023-08-21T11:27:25;6.35;;;1.33;;
71462;SDS011;59266;52.608;13.260;2023-08-21T11:29:52;4.07;;;1.30;;
71462;SDS011;59266;52.608;13.260;2023-08-21T11:32:19;3.42;;;1.13;;
71462;SDS011;59266;52.608;13.260;2023-08-21T11:37:18;4.88;;;1.40;;
71462;SDS011;59266;52.608;13.260;2023-08-21T11:39:49;5.00;;;1.25;;
71462;SDS011;59266;52.608;13.260;2023-08-21T11:42:21;5.35;;;1.50;;
71462;SDS011;59266;52.608;13.260;2023-08-21T11:44:54;6.55;;;1.33;;
71462;SDS011;59266;52.608;13.260;2023-08-21T11:47:21;5.15;;;1.30;;
71462;SDS011;59266;52.608;13.260;2023-08-21T11:49:50;5.43;;;1.20;;
71462;SDS011;59266;52.608;13.260;2023-08-21T11:52:17;5.57;;;1.50;;
71462;SDS011;59266;52.608;13.260;2023-08-21T11:54:50;4.50;;;1.40;;
71462;SDS011;59266;52.608;13.260;2023-08-21T11:57:17;9.52;;;1.52;;
71462;SDS011;59266;52.608;13.260;2023-08-21T11:59:51;6.65;;;1.73;;
71462;SDS011;59266;52.608;13.260;2023-08-21T12:02:27;5.75;;;1.42;;
71462;SDS011;59266;52.608;13.260;2023-08-21T12:04:54;5.22;;;1.50;;
71462;SDS011;59266;52.608;13.260;2023-08-21T12:07:28;4.22;;;1.35;;
71462;SDS011;59266;52.608;13.260;2023-08-21T12:09:55;6.28;;;1.65;;
71462;SDS011;59266;52.608;13.260;2023-08-21T12:12:21;6.03;;;1.52;;
71462;SDS011;59266;52.608;13.260;2023-08-21T12:14:48;6.50;;;1.70;;
71462;SDS011;59266;52.608;13.260;2023-08-21T12:17:15;4.70;;;1.48;;
71462;SDS011;59266;52.608;13.260;2023-08-21T12:19:42;5.35;;;1.73;;
71462;SDS011;59266;52.608;13.260;2023-08-21T12:22:09;4.95;;;1.58;;
71462;SDS011;59266;52.608;13.260;2023-08-21T12:24:36;4.80;;;1.17;;
71462;SDS011;59266;52.608;13.260;2023-08-21T12:27:05;4.75;;;1.30;;
71462;SDS011;59266;52.608;13.260;2023-08-21T12:29:32;4.18;;;1.23;;
71462;SDS011;59266;52.608;13.260;2023-08-21T12:31:59;4.35;;;1.08;;
71462;SDS011;59266;52.608;13.260;2023-08-21T12:34:26;4.50;;;1.15;;
71462;SDS011;59266;52.608;13.260;2023-08-21T12:36:53;5.18;;;1.30;;
71462;SDS011;59266;52.608;13.260;2023-08-21T12:39:19;3.38;;;1.17;;
71462;SDS011;59266;52.608;13.260;2023-08-21T12:41:48;5.38;;;1.17;;
71462;SDS011;59266;52.608;13.260;2023-08-21T12:44:14;3.60;;;1.10;;
71462;SDS011;59266;52.608;13.260;2023-08-21T12:46:41;6.07;;;1.45;;
71462;SDS011;59266;52.608;13.260;2023-08-21T12:49:08;6.80;;;1.50;;
71462;SDS011;59266;52.608;13.260;2023-08-21T12:51:35;6.55;;;1.30;;
71462;SDS011;59266;52.608;13.260;2023-08-21T12:54:28;5.05;;;1.30;;
71462;SDS011;59266;52.608;13.260;2023-08-21T12:56:59;6.90;;;1.65;;
71462;SDS011;59266;52.608;13.260;2023-08-21T12:59:26;11.13;;;2.75;;
71462;SDS011;59266;52.608;13.260;2023-08-21T13:01:53;5.13;;;1.30;;
71462;SDS011;59266;52.608;13.260;2023-08-21T13:04:19;7.43;;;1.30;;
71462;SDS011;59266;52.608;13.260;2023-08-21T13:07:04;4.68;;;1.17;;
71462;SDS011;59266;52.608;13.260;2023-08-21T13:09:33;5.82;;;1.33;;
71462;SDS011;59266;52.608;13.260;2023-08-21T13:12:02;4.18;;;1.30;;
71462;SDS011;59266;52.608;13.260;2023-08-21T13:14:29;6.93;;;1.30;;
71462;SDS011;59266;52.608;13.260;2023-08-21T13:16:58;7.03;;;1.52;;
71462;SDS011;59266;52.608;13.260;2023-08-21T13:19:24;4.38;;;1.10;;
71462;SDS011;59266;52.608;13.260;2023-08-21T13:21:51;5.95;;;1.40;;
71462;SDS011;59266;52.608;13.260;2023-08-21T13:24:19;7.80;;;1.35;;
71462;SDS011;59266;52.608;13.260;2023-08-21T13:26:46;24.40;;;6.45;;
71462;SDS011;59266;52.608;13.260;2023-08-21T13:29:12;6.03;;;1.30;;
71462;SDS011;59266;52.608;13.260;2023-08-21T13:31:43;5.20;;;1.20;;
71462;SDS011;59266;52.608;13.260;2023-08-21T13:34:17;5.68;;;1.50;;
71462;SDS011;59266;52.608;13.260;2023-08-21T13:36:46;4.07;;;1.10;;
71462;SDS011;59266;52.608;13.260;2023-08-21T13:39:18;5.93;;;1.50;;
71462;SDS011;59266;52.608;13.260;2023-08-21T13:41:53;4.80;;;1.35;;
71462;SDS011;59266;52.608;13.260;2023-08-21T13:44:20;5.15;;;1.30;;
71462;SDS011;59266;52.608;13.260;2023-08-21T13:46:47;6.68;;;1.70;;
71462;SDS011;59266;52.608;13.260;2023-08-21T13:49:16;6.55;;;1.08;;
71462;SDS011;59266;52.608;13.260;2023-08-21T13:51:47;4.05;;;0.90;;
71462;SDS011;59266;52.608;13.260;2023-08-21T13:54:14;3.05;;;0.90;;
71462;SDS011;59266;52.608;13.260;2023-08-21T13:56:42;3.40;;;0.90;;
71462;SDS011;59266;52.608;13.260;2023-08-21T13:59:09;3.88;;;1.08;;
71462;SDS011;59266;52.608;13.260;2023-08-21T14:01:35;2.67;;;0.90;;
71462;SDS011;59266;52.608;13.260;2023-08-21T14:04:04;3.88;;;1.02;;
71462;SDS011;59266;52.608;13.260;2023-08-21T14:06:31;3.67;;;1.00;;
71462;SDS011;59266;52.608;13.260;2023-08-21T14:09:04;3.92;;;0.80;;
71462;SDS011;59266;52.608;13.260;2023-08-21T14:11:32;2.47;;;0.77;;
71462;SDS011;59266;52.608;13.260;2023-08-21T14:13:59;3.42;;;0.90;;
71462;SDS011;59266;52.608;13.260;2023-08-21T14:16:26;2.85;;;1.00;;
71462;SDS011;59266;52.608;13.260;2023-08-21T14:18:53;3.60;;;0.90;;
71462;SDS011;59266;52.608;13.260;2023-08-21T14:21:19;3.88;;;0.90;;
71462;SDS011;59266;52.608;13.260;2023-08-21T14:23:49;3.95;;;0.95;;
71462;SDS011;59266;52.608;13.260;2023-08-21T14:26:16;2.53;;;0.95;;
71462;SDS011;59266;52.608;13.260;2023-08-21T14:28:45;2.42;;;0.98;;
71462;SDS011;59266;52.608;13.260;2023-08-21T14:31:16;3.22;;;1.00;;
71462;SDS011;59266;52.608;13.260;2023-08-21T14:33:43;4.75;;;1.00;;
71462;SDS011;59266;52.608;13.260;2023-08-21T14:36:10;5.70;;;1.20;;
71462;SDS011;59266;52.608;13.260;2023-08-21T14:38:37;5.35;;;1.20;;